KNYG/NYG METAR and TAF weather

Enter ICAO airport designator
Station Type Date Time Source
KNYG METAR 2021/09/27 05:56 UTC NOAA

KNYG 270556Z AUTO 27004KT 10SM CLR 15/12 A3008 RMK AO2 SLP186 T01500117 10178 20144 53005


Station Type Date Time Source
KNYG Decoded METAR 2021/09/27 05:56 UTC NOAA

QUANTICO MARINE CORPS AIRFAC, VA, United States (KNYG) 38-30N 077-18W 3M
Sep 27, 2021 - 01:56 AM EDT / 2021.09.27 0556 UTC
Wind: from the W (270 degrees) at 5 MPH (4 KT):0
Visibility: 10 mile(s):0
Sky conditions: clear
Temperature: 59.0 F (15.0 C)
Dew Point: 53.1 F (11.7 C)
Relative Humidity: 80%
Pressure (altimeter): 30.08 in. Hg (1018 hPa)
Pressure tendency: 0.01 inches (0.5 hPa) higher than three hours ago
ob: KNYG 270556Z AUTO 27004KT 10SM CLR 15/12 A3008 RMK AO2 SLP186 T01500117 10178 20144 53005
cycle: 6

Station Type Date Time Source
KNYG TAF 2021/09/26 15:58 UTC NOAA

TAF KNYG 2615/2715 34009KT 9999 SKC QNH3008INS
TEMPO 2616/2621 29010G20KT 9999 SKC
BECMG 2710/2712 VRB06KT 9999 SCT100 QNH3006INS T22/2620Z T13/2711Z LAST NO AMENDS UNTIL 2709

Example: see airport list